createdAt,value
2017-10-21T00:01:56.896Z,11.90
2017-10-21T00:04:25.015Z,11.80
2017-10-21T00:06:53.907Z,11.90
2017-10-21T00:09:21.991Z,11.90
2017-10-21T00:11:50.864Z,11.80
2017-10-21T00:14:19.864Z,11.90
2017-10-21T00:16:48.712Z,11.90
2017-10-21T00:19:16.803Z,11.90
2017-10-21T00:21:44.908Z,11.90
2017-10-21T00:24:13.788Z,11.90
2017-10-21T00:26:41.889Z,11.90
2017-10-21T00:29:10.178Z,11.90
2017-10-21T00:31:39.032Z,11.80
2017-10-21T00:34:07.211Z,11.80
2017-10-21T00:36:35.287Z,11.80
2017-10-21T00:39:03.424Z,11.80
2017-10-21T00:41:31.524Z,11.80
2017-10-21T00:44:00.375Z,11.80
2017-10-21T00:46:28.488Z,11.90
2017-10-21T00:48:57.380Z,11.90
2017-10-21T00:51:26.233Z,11.90
2017-10-21T00:53:54.324Z,11.90
2017-10-21T00:56:22.424Z,11.90
2017-10-21T00:58:51.288Z,11.90
2017-10-21T01:01:19.388Z,11.90
2017-10-21T01:03:47.500Z,11.90
2017-10-21T01:06:15.583Z,11.90
2017-10-21T01:08:43.697Z,11.90
2017-10-21T01:11:12.549Z,11.90
2017-10-21T01:13:40.648Z,11.90
2017-10-21T01:16:08.743Z,11.90
2017-10-21T01:18:36.823Z,11.90
2017-10-21T01:21:04.945Z,11.90
2017-10-21T01:23:33.040Z,11.90
2017-10-21T01:26:01.133Z,11.90
2017-10-21T01:28:29.232Z,12.00
2017-10-21T01:31:00.960Z,12.00
2017-10-21T01:33:29.073Z,12.00
2017-10-21T01:35:57.180Z,12.00
2017-10-21T01:38:25.363Z,12.00
2017-10-21T01:40:54.232Z,12.00
2017-10-21T01:43:22.336Z,12.00
2017-10-21T01:45:52.109Z,12.00
2017-10-21T01:48:20.220Z,12.00
2017-10-21T01:50:48.343Z,12.00
2017-10-21T01:53:16.428Z,12.00
2017-10-21T01:55:44.566Z,12.10
2017-10-21T01:58:13.420Z,12.10
2017-10-21T02:00:42.315Z,12.00
2017-10-21T02:03:11.343Z,12.00
2017-10-21T02:05:39.451Z,12.00
2017-10-21T02:08:07.529Z,12.00
2017-10-21T02:10:35.828Z,11.90
2017-10-21T02:13:04.692Z,12.00
2017-10-21T02:15:33.000Z,12.00
2017-10-21T02:18:01.853Z,12.00
2017-10-21T02:20:29.944Z,12.10
2017-10-21T02:22:58.069Z,12.10
2017-10-21T02:25:26.658Z,12.10
2017-10-21T02:27:54.773Z,12.10
2017-10-21T02:30:22.956Z,12.10
2017-10-21T02:32:51.772Z,12.10
2017-10-21T02:35:20.758Z,12.10
2017-10-21T02:37:48.869Z,12.10
2017-10-21T02:40:16.965Z,12.10
2017-10-21T02:42:45.199Z,12.00
2017-10-21T02:45:13.308Z,12.10
2017-10-21T02:47:41.415Z,12.00
2017-10-21T02:50:09.551Z,12.00
2017-10-21T02:52:37.902Z,12.00
2017-10-21T02:55:06.001Z,12.10
2017-10-21T02:57:34.779Z,12.00
2017-10-21T03:00:02.859Z,12.00
2017-10-21T03:02:30.943Z,12.00
2017-10-21T03:04:59.043Z,12.00
2017-10-21T03:07:27.137Z,12.00
2017-10-21T03:09:55.228Z,12.00
2017-10-21T03:12:23.319Z,12.00
2017-10-21T03:14:51.403Z,12.00
2017-10-21T03:17:19.499Z,12.00
2017-10-21T03:19:48.355Z,12.00
2017-10-21T03:22:16.452Z,12.00
2017-10-21T03:24:44.561Z,12.00
2017-10-21T03:27:12.631Z,12.00
2017-10-21T03:29:40.727Z,12.00
2017-10-21T03:32:08.815Z,11.90
2017-10-21T03:34:36.911Z,11.90
2017-10-21T03:37:05.005Z,11.90
2017-10-21T03:39:33.137Z,11.90
2017-10-21T03:42:01.403Z,11.90
2017-10-21T03:44:29.480Z,11.90
2017-10-21T03:46:57.572Z,11.90
2017-10-21T03:49:25.671Z,11.90
2017-10-21T03:51:54.535Z,11.90
2017-10-21T03:54:22.644Z,11.80
2017-10-21T03:56:50.731Z,11.90
2017-10-21T03:59:19.611Z,11.90
2017-10-21T04:01:47.703Z,11.80
2017-10-21T04:04:15.811Z,11.80
2017-10-21T04:06:43.896Z,11.80
2017-10-21T04:09:12.771Z,11.80
2017-10-21T04:11:40.869Z,11.80
2017-10-21T04:14:09.746Z,11.80
2017-10-21T04:16:37.817Z,11.80
2017-10-21T04:19:05.922Z,11.80
2017-10-21T04:21:33.993Z,11.80
2017-10-21T04:24:02.103Z,11.70
2017-10-21T04:26:30.206Z,11.70
2017-10-21T04:28:58.299Z,11.70
2017-10-21T04:31:27.161Z,11.70
2017-10-21T04:33:55.239Z,11.70
2017-10-21T04:36:23.321Z,11.60
2017-10-21T04:38:51.416Z,11.70
2017-10-21T04:41:19.604Z,11.60
2017-10-21T04:43:47.719Z,11.50
2017-10-21T04:46:15.795Z,11.50
2017-10-21T04:48:43.951Z,11.50
2017-10-21T04:51:12.056Z,11.50
2017-10-21T04:53:40.195Z,11.40
2017-10-21T04:56:08.556Z,11.40
2017-10-21T04:58:36.632Z,11.40
2017-10-21T05:01:04.758Z,11.40
2017-10-21T05:03:33.636Z,11.40
2017-10-21T05:06:01.724Z,11.40
2017-10-21T05:08:30.041Z,11.40
2017-10-21T05:10:58.109Z,11.30
2017-10-21T05:13:26.234Z,11.30
2017-10-21T05:15:54.311Z,11.30
2017-10-21T05:18:22.393Z,11.40
2017-10-21T05:20:50.845Z,11.40
2017-10-21T05:23:18.924Z,11.30
2017-10-21T05:25:47.795Z,11.30
2017-10-21T05:28:15.885Z,11.30
2017-10-21T05:30:45.876Z,11.30
2017-10-21T05:33:13.980Z,11.30
2017-10-21T05:35:42.057Z,11.30
2017-10-21T05:38:10.928Z,11.30
2017-10-21T05:40:39.012Z,11.30
2017-10-21T05:43:07.110Z,11.30
2017-10-21T05:45:36.682Z,11.40
2017-10-21T05:48:04.776Z,11.30
2017-10-21T05:50:33.800Z,11.30
2017-10-21T05:53:01.905Z,11.30
2017-10-21T05:55:30.012Z,11.30
2017-10-21T05:57:58.881Z,11.30
2017-10-21T06:00:27.016Z,11.30
2017-10-21T06:02:56.174Z,11.40
2017-10-21T06:05:24.282Z,11.40
2017-10-21T06:07:52.406Z,11.40
2017-10-21T06:10:20.504Z,11.40
2017-10-21T06:12:49.684Z,11.40
2017-10-21T06:15:17.998Z,11.40
2017-10-21T06:17:46.282Z,11.40
2017-10-21T06:20:14.371Z,11.50
2017-10-21T06:22:42.452Z,11.50
2017-10-21T06:25:10.544Z,11.50
2017-10-21T06:27:38.638Z,11.60
2017-10-21T06:30:07.496Z,11.60
2017-10-21T06:32:35.599Z,11.60
2017-10-21T06:35:04.496Z,11.70
2017-10-21T06:37:32.584Z,11.70
2017-10-21T06:40:00.703Z,11.70
2017-10-21T06:42:28.787Z,11.80
2017-10-21T06:44:56.888Z,11.80
2017-10-21T06:47:26.020Z,11.90
2017-10-21T06:49:54.142Z,11.90
2017-10-21T06:52:22.263Z,11.90
2017-10-21T06:54:50.349Z,11.90
2017-10-21T06:57:18.724Z,11.90
2017-10-21T06:59:46.847Z,11.90
2017-10-21T07:02:16.288Z,12.00
2017-10-21T07:04:44.377Z,12.00
2017-10-21T07:07:12.480Z,12.10
2017-10-21T07:09:40.577Z,12.10
2017-10-21T07:12:08.681Z,12.10
2017-10-21T07:14:36.772Z,12.20
2017-10-21T07:17:04.869Z,12.20
2017-10-21T07:19:32.952Z,12.20
2017-10-21T07:22:01.814Z,12.30
2017-10-21T07:24:29.904Z,12.30
2017-10-21T07:26:58.738Z,12.30
2017-10-21T07:29:26.851Z,12.30
2017-10-21T07:31:54.932Z,12.30
2017-10-21T07:34:23.022Z,12.30
2017-10-21T07:36:51.900Z,12.30
2017-10-21T07:39:19.996Z,12.30
2017-10-21T07:41:49.115Z,12.30
2017-10-21T07:44:17.193Z,12.30
2017-10-21T07:46:45.277Z,12.30
2017-10-21T07:49:13.387Z,12.30
2017-10-21T07:51:41.474Z,12.30
2017-10-21T07:54:09.591Z,12.30
2017-10-21T07:56:37.677Z,12.30
2017-10-21T07:59:05.775Z,12.20
2017-10-21T08:01:33.880Z,12.20
2017-10-21T08:04:01.987Z,12.20
2017-10-21T08:06:30.108Z,12.20
2017-10-21T08:08:58.980Z,12.10
2017-10-21T08:11:27.083Z,12.10
2017-10-21T08:13:56.624Z,12.10
2017-10-21T08:16:24.731Z,12.10
2017-10-21T08:18:52.822Z,12.10
2017-10-21T08:21:20.929Z,12.10
2017-10-21T08:23:49.015Z,12.10
2017-10-21T08:26:17.126Z,12.20
2017-10-21T08:28:45.258Z,12.20
2017-10-21T08:31:13.372Z,12.20
2017-10-21T08:33:41.461Z,12.20
2017-10-21T08:36:10.329Z,12.20
2017-10-21T08:38:38.431Z,12.30
2017-10-21T08:41:06.516Z,12.20
2017-10-21T08:43:34.622Z,12.30
2017-10-21T08:46:02.740Z,12.30
2017-10-21T08:48:30.884Z,12.40
2017-10-21T08:50:58.977Z,12.40
2017-10-21T08:53:27.108Z,12.40
2017-10-21T08:55:55.457Z,12.50
2017-10-21T08:58:23.768Z,12.50
2017-10-21T09:00:51.891Z,12.50
2017-10-21T09:03:21.787Z,12.50
2017-10-21T09:05:49.889Z,12.50
2017-10-21T09:08:17.998Z,12.60
2017-10-21T09:10:46.086Z,12.70
2017-10-21T09:13:14.173Z,12.70
2017-10-21T09:15:42.259Z,12.70
2017-10-21T09:18:11.126Z,12.80
2017-10-21T09:20:39.220Z,12.80
2017-10-21T09:23:08.069Z,12.90
2017-10-21T09:25:36.895Z,12.90
2017-10-21T09:28:05.744Z,12.90
2017-10-21T09:30:33.828Z,13.00
2017-10-21T09:33:01.929Z,13.00
2017-10-21T09:35:30.029Z,13.10
2017-10-21T09:37:58.124Z,13.10
2017-10-21T09:40:26.220Z,13.10
2017-10-21T09:42:54.316Z,13.20
2017-10-21T09:45:22.486Z,13.20
2017-10-21T09:47:50.576Z,13.20
2017-10-21T09:50:19.459Z,13.20
2017-10-21T09:52:47.563Z,13.30
2017-10-21T09:55:15.772Z,13.40
2017-10-21T09:57:44.526Z,13.30
2017-10-21T10:00:13.650Z,13.40
2017-10-21T10:02:41.739Z,13.40
2017-10-21T10:05:09.820Z,13.40
2017-10-21T10:07:37.916Z,13.40
2017-10-21T10:10:06.780Z,13.40
2017-10-21T10:12:34.897Z,13.50
2017-10-21T10:15:03.002Z,13.50
2017-10-21T10:17:31.091Z,13.50
2017-10-21T10:19:59.223Z,13.50
2017-10-21T10:22:27.352Z,13.50
2017-10-21T10:24:55.447Z,13.50
2017-10-21T10:27:24.561Z,13.60
2017-10-21T10:29:52.644Z,13.60
2017-10-21T10:32:20.747Z,13.60
2017-10-21T10:34:48.917Z,13.50
2017-10-21T10:37:17.037Z,13.60
2017-10-21T10:39:45.148Z,13.60
2017-10-21T10:42:13.239Z,13.60
2017-10-21T10:44:41.347Z,13.70
2017-10-21T10:47:10.237Z,13.70
2017-10-21T10:49:38.391Z,13.80
2017-10-21T10:52:06.473Z,13.80
2017-10-21T10:54:34.567Z,13.90
2017-10-21T10:57:02.679Z,13.90
2017-10-21T11:06:15.011Z,14.20
2017-10-21T11:08:43.115Z,14.30
2017-10-21T11:11:11.196Z,14.30
2017-10-21T11:13:39.370Z,14.40
2017-10-21T11:16:07.452Z,14.50
2017-10-21T11:18:36.716Z,14.50
2017-10-21T11:21:04.831Z,14.60
2017-10-21T11:23:32.933Z,14.70
2017-10-21T11:26:02.216Z,14.80
2017-10-21T11:28:31.176Z,14.80
2017-10-21T11:30:59.268Z,14.80
2017-10-21T11:33:28.502Z,14.90
2017-10-21T11:35:56.591Z,14.90
2017-10-21T11:38:24.676Z,15.00
2017-10-21T11:40:52.794Z,15.00
2017-10-21T11:43:21.049Z,15.00
2017-10-21T11:45:49.135Z,15.00
2017-10-21T11:48:18.016Z,15.00
2017-10-21T11:50:46.873Z,15.10
2017-10-21T11:53:14.985Z,15.20
2017-10-21T11:55:43.873Z,15.20
2017-10-21T11:58:11.996Z,15.30
2017-10-21T12:00:40.104Z,15.30
2017-10-21T12:03:08.186Z,15.30
2017-10-21T12:05:36.271Z,15.40
2017-10-21T12:08:04.598Z,15.40
2017-10-21T12:10:32.824Z,15.40
2017-10-21T12:13:00.896Z,15.50
2017-10-21T12:15:29.019Z,15.50
2017-10-21T12:17:57.098Z,15.60
2017-10-21T12:20:25.222Z,15.60
2017-10-21T12:22:53.293Z,15.60
2017-10-21T12:25:22.151Z,15.70
2017-10-21T12:27:50.295Z,15.80
2017-10-21T12:30:18.424Z,15.90
2017-10-21T12:32:46.495Z,15.90
2017-10-21T12:35:14.608Z,15.90
2017-10-21T12:37:42.757Z,15.90
2017-10-21T12:40:10.914Z,15.90
2017-10-21T12:42:39.028Z,15.90
2017-10-21T12:45:07.147Z,15.90
2017-10-21T12:47:35.235Z,15.90
2017-10-21T12:50:03.353Z,16.00
2017-10-21T12:52:31.455Z,16.00
2017-10-21T12:54:59.545Z,16.00
2017-10-21T12:57:27.653Z,16.00
2017-10-21T12:59:55.744Z,16.00
2017-10-21T13:02:23.855Z,16.10
2017-10-21T13:04:52.771Z,16.10
2017-10-21T13:07:20.864Z,16.10
2017-10-21T13:09:48.946Z,16.10
2017-10-21T13:12:17.027Z,16.00
2017-10-21T13:14:45.165Z,16.00
2017-10-21T13:17:13.264Z,16.10
2017-10-21T13:19:41.352Z,16.10
2017-10-21T13:22:09.505Z,16.10
2017-10-21T13:24:37.617Z,16.10
2017-10-21T13:27:05.703Z,16.10
2017-10-21T13:29:33.812Z,16.10
2017-10-21T13:32:01.912Z,16.10
2017-10-21T13:34:30.039Z,16.10
2017-10-21T13:36:58.136Z,16.10
2017-10-21T13:39:26.999Z,16.10
2017-10-21T13:41:55.092Z,16.20
2017-10-21T13:44:23.939Z,16.20
2017-10-21T13:46:52.056Z,16.10
2017-10-21T13:49:20.199Z,16.10
2017-10-21T13:51:49.068Z,16.00
2017-10-21T13:54:17.201Z,16.00
2017-10-21T13:56:45.296Z,16.00
2017-10-21T13:59:13.387Z,16.00
2017-10-21T14:01:41.515Z,16.00
2017-10-21T14:04:09.664Z,15.90
2017-10-21T14:06:37.782Z,15.90
2017-10-21T14:09:05.916Z,15.90
2017-10-21T14:11:34.005Z,15.90
2017-10-21T14:14:02.114Z,15.90
2017-10-21T14:16:30.212Z,15.90
2017-10-21T14:18:58.323Z,15.90
2017-10-21T14:21:26.404Z,15.90
2017-10-21T14:23:54.495Z,15.80
2017-10-21T14:26:22.587Z,15.80
2017-10-21T14:28:50.681Z,15.80
2017-10-21T14:31:18.785Z,15.80
2017-10-21T14:33:47.636Z,15.90
2017-10-21T14:36:16.535Z,15.90
2017-10-21T14:38:44.659Z,15.80
2017-10-21T14:41:12.756Z,15.80
2017-10-21T14:43:40.865Z,15.80
2017-10-21T14:46:08.959Z,15.90
2017-10-21T14:48:37.068Z,15.80
2017-10-21T14:51:05.167Z,15.80
2017-10-21T14:53:34.033Z,15.70
2017-10-21T14:56:02.136Z,15.70
2017-10-21T14:58:30.233Z,15.60
2017-10-21T15:00:58.324Z,15.60
2017-10-21T15:03:26.989Z,15.50
2017-10-21T15:05:55.148Z,15.50
2017-10-21T15:08:23.220Z,15.50
2017-10-21T15:10:51.333Z,15.50
2017-10-21T15:13:19.448Z,15.50
2017-10-21T15:15:48.460Z,15.50
2017-10-21T15:18:16.575Z,15.50
2017-10-21T15:20:45.585Z,15.50
2017-10-21T15:23:13.668Z,15.40
2017-10-21T15:25:41.987Z,15.50
2017-10-21T15:28:10.195Z,15.50
2017-10-21T15:30:38.263Z,15.50
2017-10-21T15:33:06.335Z,15.40
2017-10-21T15:35:34.432Z,15.40
2017-10-21T15:38:02.541Z,15.40
2017-10-21T15:40:30.627Z,15.30
2017-10-21T15:42:58.899Z,15.30
2017-10-21T15:45:26.977Z,15.30
2017-10-21T15:47:55.063Z,15.30
2017-10-21T15:50:23.217Z,15.30
2017-10-21T15:52:51.331Z,15.30
2017-10-21T15:55:19.480Z,15.30
2017-10-21T15:57:47.595Z,15.30
2017-10-21T16:00:15.697Z,15.20
2017-10-21T16:02:43.782Z,15.20
2017-10-21T16:05:11.916Z,15.20
2017-10-21T16:07:40.051Z,15.10
2017-10-21T16:10:09.183Z,15.20
2017-10-21T16:12:37.298Z,15.10
2017-10-21T16:15:05.384Z,15.00
2017-10-21T16:17:34.375Z,15.00
2017-10-21T16:20:02.480Z,14.90
2017-10-21T16:22:30.571Z,14.90
2017-10-21T16:24:58.679Z,14.80
2017-10-21T16:27:26.780Z,14.80
2017-10-21T16:29:54.915Z,14.70
2017-10-21T16:32:23.007Z,14.70
2017-10-21T16:34:51.133Z,14.70
2017-10-21T16:37:19.229Z,14.50
2017-10-21T16:39:47.336Z,14.50
2017-10-21T16:42:15.431Z,14.40
2017-10-21T16:44:43.512Z,14.50
2017-10-21T16:47:11.640Z,14.40
2017-10-21T16:49:39.744Z,14.30
2017-10-21T16:52:07.841Z,14.30
2017-10-21T16:54:36.724Z,14.20
2017-10-21T16:57:04.848Z,14.10
2017-10-21T16:59:33.015Z,14.00
2017-10-21T17:02:01.510Z,14.00
2017-10-21T17:04:29.617Z,13.90
2017-10-21T17:06:57.800Z,13.80
2017-10-21T17:09:25.900Z,13.80
2017-10-21T17:11:54.012Z,13.70
2017-10-21T17:14:22.095Z,13.70
2017-10-21T17:16:50.212Z,13.60
2017-10-21T17:19:18.292Z,13.60
2017-10-21T17:21:46.582Z,13.50
2017-10-21T17:24:14.655Z,13.40
2017-10-21T17:26:42.760Z,13.40
2017-10-21T17:29:10.855Z,13.30
2017-10-21T17:31:39.732Z,13.30
2017-10-21T17:34:07.863Z,13.30
2017-10-21T17:36:36.092Z,13.20
2017-10-21T17:39:04.183Z,13.10
2017-10-21T17:41:33.235Z,13.10
2017-10-21T17:44:01.348Z,13.10
2017-10-21T17:46:29.430Z,13.10
2017-10-21T17:48:57.587Z,13.10
2017-10-21T17:51:25.696Z,13.10
2017-10-21T17:53:53.824Z,13.00
2017-10-21T17:56:21.920Z,13.00
2017-10-21T17:58:50.099Z,13.00
2017-10-21T18:01:18.393Z,13.00
2017-10-21T18:03:46.524Z,13.00
2017-10-21T18:06:15.413Z,13.00
2017-10-21T18:08:43.492Z,12.90
2017-10-21T18:11:11.720Z,12.90
2017-10-21T18:13:39.900Z,12.90
2017-10-21T18:16:08.135Z,12.90
2017-10-21T18:18:37.004Z,12.90
2017-10-21T18:21:05.275Z,12.90
2017-10-21T18:23:34.160Z,13.00
2017-10-21T18:26:02.263Z,13.00
2017-10-21T18:28:30.384Z,13.00
2017-10-21T18:30:58.628Z,13.00
2017-10-21T18:33:27.813Z,13.00
2017-10-21T18:35:56.106Z,13.00
2017-10-21T18:38:24.200Z,13.10
2017-10-21T18:40:52.407Z,13.10
2017-10-21T18:43:20.524Z,13.10
2017-10-21T18:45:48.639Z,13.10
2017-10-21T18:48:16.824Z,13.10
2017-10-21T18:50:44.928Z,13.10
2017-10-21T18:53:13.104Z,13.10
2017-10-21T18:55:41.195Z,13.20
2017-10-21T18:58:09.374Z,13.20
2017-10-21T19:00:37.495Z,13.20
2017-10-21T19:03:05.852Z,13.20
2017-10-21T19:05:33.940Z,13.20
2017-10-21T19:08:02.066Z,13.20
2017-10-21T19:10:30.172Z,13.20
2017-10-21T19:12:58.280Z,13.30
2017-10-21T19:15:27.149Z,13.30
2017-10-21T19:17:55.232Z,13.30
2017-10-21T19:20:23.326Z,13.30
2017-10-21T19:22:51.426Z,13.30
2017-10-21T19:25:19.559Z,13.30
2017-10-21T19:27:47.659Z,13.20
2017-10-21T19:30:15.753Z,13.20
2017-10-21T19:32:43.853Z,13.10
2017-10-21T19:35:11.950Z,13.10
2017-10-21T19:37:40.883Z,13.10
2017-10-21T19:40:10.018Z,13.10
2017-10-21T19:42:38.108Z,13.00
2017-10-21T19:45:06.402Z,13.00
2017-10-21T19:47:34.486Z,12.90
2017-10-21T19:50:02.607Z,12.90
2017-10-21T19:52:30.713Z,12.90
2017-10-21T19:54:58.804Z,12.90
2017-10-21T19:57:26.912Z,12.80
2017-10-21T19:59:55.000Z,12.70
2017-10-21T20:02:23.088Z,12.80
2017-10-21T20:04:51.203Z,12.80
2017-10-21T20:07:19.288Z,12.70
2017-10-21T20:09:47.388Z,12.70
2017-10-21T20:12:15.570Z,12.70
2017-10-21T20:14:43.697Z,12.70
2017-10-21T20:17:11.780Z,12.70
2017-10-21T20:19:39.883Z,12.70
2017-10-21T20:22:07.971Z,12.70
2017-10-21T20:24:36.075Z,12.60
2017-10-21T20:27:04.179Z,12.60
2017-10-21T20:29:32.272Z,12.60
2017-10-21T20:32:00.400Z,12.60
2017-10-21T20:34:28.503Z,12.50
2017-10-21T20:36:56.588Z,12.50
2017-10-21T20:39:24.709Z,12.50
2017-10-21T20:41:52.820Z,12.50
2017-10-21T20:44:20.939Z,12.50
2017-10-21T20:46:49.039Z,12.50
2017-10-21T20:49:17.136Z,12.50
2017-10-21T20:51:45.373Z,12.50
2017-10-21T20:54:13.464Z,12.50
2017-10-21T20:56:41.722Z,12.40
2017-10-21T20:59:09.943Z,12.40
2017-10-21T21:01:38.048Z,12.40
2017-10-21T21:04:06.195Z,12.40
2017-10-21T21:06:34.296Z,12.40
2017-10-21T21:09:02.385Z,12.40
2017-10-21T21:11:31.500Z,12.40
2017-10-21T21:13:59.618Z,12.40
2017-10-21T21:16:27.706Z,12.50
2017-10-21T21:18:56.596Z,12.40
2017-10-21T21:21:24.704Z,12.40
2017-10-21T21:23:52.828Z,12.40
2017-10-21T21:26:21.683Z,12.40
2017-10-21T21:28:49.968Z,12.40
2017-10-21T21:31:18.080Z,12.30
2017-10-21T21:33:46.944Z,12.40
2017-10-21T21:36:15.823Z,12.30
2017-10-21T21:38:43.909Z,12.30
2017-10-21T21:41:12.015Z,12.20
2017-10-21T21:43:40.099Z,12.20
2017-10-21T21:46:08.188Z,12.20
2017-10-21T21:48:36.320Z,12.20
2017-10-21T21:51:05.176Z,12.20
2017-10-21T21:53:33.414Z,12.20
2017-10-21T21:56:01.539Z,12.10
2017-10-21T21:58:29.641Z,12.10
2017-10-21T22:00:57.735Z,12.20
2017-10-21T22:03:25.828Z,12.20
2017-10-21T22:05:53.935Z,12.10
2017-10-21T22:08:22.789Z,12.10
2017-10-21T22:10:50.885Z,12.20
2017-10-21T22:13:18.996Z,12.10
2017-10-21T22:15:47.169Z,12.10
2017-10-21T22:18:15.428Z,12.10
2017-10-21T22:20:44.276Z,12.20
2017-10-21T22:23:12.393Z,12.20
2017-10-21T22:25:40.471Z,12.10
2017-10-21T22:28:09.350Z,12.20
2017-10-21T22:30:37.433Z,12.10
2017-10-21T22:33:05.516Z,12.10
2017-10-21T22:35:33.623Z,12.10
2017-10-21T22:38:01.711Z,12.10
2017-10-21T22:40:29.814Z,12.00
2017-10-21T22:42:58.672Z,12.00
2017-10-21T22:45:26.783Z,12.00
2017-10-21T22:47:54.873Z,12.00
2017-10-21T22:50:22.968Z,12.00
2017-10-21T22:52:51.081Z,12.00
2017-10-21T22:55:19.168Z,12.00
2017-10-21T22:57:47.259Z,11.90
2017-10-21T23:00:15.368Z,11.90
2017-10-21T23:02:43.452Z,12.00
2017-10-21T23:05:11.543Z,12.00
2017-10-21T23:07:39.646Z,11.90
2017-10-21T23:10:07.842Z,11.90
2017-10-21T23:12:35.940Z,11.90
2017-10-21T23:15:04.049Z,11.90
2017-10-21T23:17:32.183Z,11.90
2017-10-21T23:20:00.291Z,11.90
2017-10-21T23:22:28.501Z,11.90
2017-10-21T23:24:56.631Z,11.90
2017-10-21T23:27:24.716Z,11.90
2017-10-21T23:29:52.827Z,11.80
2017-10-21T23:32:20.914Z,11.90
2017-10-21T23:34:49.004Z,11.90
2017-10-21T23:37:17.116Z,11.90
2017-10-21T23:39:45.219Z,11.90
2017-10-21T23:42:13.382Z,11.90
2017-10-21T23:44:41.495Z,11.80
2017-10-21T23:47:09.582Z,11.80
2017-10-21T23:49:37.667Z,11.90
2017-10-21T23:52:05.770Z,11.80
2017-10-21T23:54:33.843Z,11.80
2017-10-21T23:57:01.943Z,11.80
2017-10-21T23:59:30.027Z,11.80
